Terminal Aerodrome Forecast
Issued by NWS

Home | Current Version | Previous Version | Text Only | Print | Product List | Glossary On
Versions: 1 2 3 4 5 6 7 8 9 10 11 12 13 14 15 16 17 18 19
000
FTUS44 KLIX 291131
TAFMCB
TAF
KMCB 291131Z 2912/3012 17004KT P6SM OVC003
      TEMPO 2912/2913 4SM BR BKN005
     FM291300 00000KT P6SM SCT010
     FM292100 15005KT P6SM VCTS SCT030CB
     FM292300 15003KT P6SM BKN060
     FM300800 VRB03KT P6SM BKN020 OVC060=

USA.gov is the U.S. government's official web portal to all federal, state and local government web resources and services.